createdAt,value
2022-08-26T00:01:06.247Z,0
2022-08-26T00:03:32.858Z,0
2022-08-26T00:05:59.522Z,0
2022-08-26T00:08:26.106Z,0
2022-08-26T00:10:52.772Z,0
2022-08-26T00:13:19.349Z,0
2022-08-26T00:15:45.995Z,0
2022-08-26T00:18:12.607Z,0
2022-08-26T00:20:39.225Z,0
2022-08-26T00:23:05.850Z,0
2022-08-26T00:27:57.603Z,0
2022-08-26T00:30:24.226Z,0
2022-08-26T00:32:50.838Z,0
2022-08-26T00:35:17.464Z,0
2022-08-26T00:37:44.093Z,0
2022-08-26T00:40:10.723Z,0
2022-08-26T00:42:37.375Z,0
2022-08-26T00:45:03.978Z,0
2022-08-26T00:47:30.584Z,0
2022-08-26T00:49:57.203Z,0
2022-08-26T00:52:23.823Z,0
2022-08-26T00:54:50.487Z,0
2022-08-26T00:57:15.580Z,0
2022-08-26T00:59:42.200Z,0
2022-08-26T01:02:08.814Z,0
2022-08-26T01:04:35.442Z,0
2022-08-26T01:07:02.076Z,0
2022-08-26T01:09:28.693Z,0
2022-08-26T01:11:55.313Z,0
2022-08-26T01:14:21.935Z,0
2022-08-26T01:16:48.548Z,0
2022-08-26T01:19:15.181Z,0
2022-08-26T01:21:41.808Z,0
2022-08-26T01:24:08.430Z,0
2022-08-26T01:26:35.050Z,0
2022-08-26T01:29:00.180Z,0
2022-08-26T01:31:26.815Z,0
2022-08-26T01:33:53.414Z,0
2022-08-26T01:36:20.037Z,0
2022-08-26T01:38:46.660Z,0
2022-08-26T01:41:13.280Z,0
2022-08-26T01:43:39.922Z,0
2022-08-26T01:46:06.542Z,0
2022-08-26T01:48:33.203Z,0
2022-08-26T01:50:59.778Z,0
2022-08-26T01:53:26.400Z,0
2022-08-26T01:55:53.036Z,0
2022-08-26T01:58:19.643Z,0
2022-08-26T02:00:44.773Z,0
2022-08-26T02:03:11.396Z,0
2022-08-26T02:05:38.013Z,0
2022-08-26T02:08:04.643Z,0
2022-08-26T02:10:31.255Z,0
2022-08-26T02:12:57.890Z,0
2022-08-26T02:15:24.505Z,0
2022-08-26T02:17:52.565Z,0
2022-08-26T02:20:17.758Z,0
2022-08-26T02:22:44.378Z,0
2022-08-26T02:25:10.999Z,0
2022-08-26T02:27:37.637Z,0
2022-08-26T02:30:04.238Z,0
2022-08-26T02:32:30.854Z,0
2022-08-26T02:34:56.007Z,0
2022-08-26T02:37:22.602Z,0
2022-08-26T02:39:49.242Z,0
2022-08-26T02:42:15.864Z,0
2022-08-26T02:44:42.489Z,0
2022-08-26T02:47:09.102Z,0
2022-08-26T02:49:35.728Z,0
2022-08-26T02:52:02.349Z,0
2022-08-26T02:54:28.972Z,0
2022-08-26T02:56:55.598Z,0
2022-08-26T02:59:22.222Z,0
2022-08-26T03:01:48.836Z,0
2022-08-26T03:04:15.470Z,0
2022-08-26T03:06:40.599Z,0
2022-08-26T03:09:07.216Z,0
2022-08-26T03:11:33.860Z,0
2022-08-26T03:14:00.461Z,0
2022-08-26T03:16:27.076Z,0
2022-08-26T03:18:53.698Z,0
2022-08-26T03:21:20.333Z,0
2022-08-26T03:23:46.960Z,0
2022-08-26T03:28:40.213Z,0
2022-08-26T03:31:06.818Z,0
2022-08-26T03:36:00.089Z,0
2022-08-26T03:38:25.199Z,0
2022-08-26T03:40:51.826Z,0
2022-08-26T03:43:18.433Z,0
2022-08-26T03:45:45.059Z,0
2022-08-26T03:48:11.699Z,0
2022-08-26T03:50:38.309Z,0
2022-08-26T03:53:04.936Z,0
2022-08-26T03:55:31.558Z,0
2022-08-26T03:57:58.190Z,0
2022-08-26T04:00:24.810Z,0
2022-08-26T04:02:51.424Z,0
2022-08-26T04:05:18.053Z,0
2022-08-26T04:07:44.669Z,0
2022-08-26T04:12:36.439Z,0
2022-08-26T04:15:03.054Z,0
2022-08-26T04:17:28.182Z,0
2022-08-26T04:19:53.308Z,0
2022-08-26T04:24:46.584Z,5
2022-08-26T04:27:13.165Z,5
2022-08-26T04:29:39.790Z,5
2022-08-26T04:32:06.409Z,11
2022-08-26T04:34:32.352Z,16
2022-08-26T04:36:58.960Z,16
2022-08-26T04:39:25.591Z,22
2022-08-26T04:41:52.194Z,28
2022-08-26T04:44:18.824Z,33
2022-08-26T04:46:45.453Z,39
2022-08-26T04:49:12.080Z,45
2022-08-26T04:51:37.209Z,56
2022-08-26T04:54:03.830Z,56
2022-08-26T04:56:30.447Z,61
2022-08-26T04:58:57.072Z,61
2022-08-26T05:01:23.698Z,73
2022-08-26T05:03:50.317Z,78
2022-08-26T05:06:16.945Z,90
2022-08-26T05:08:43.577Z,95
2022-08-26T05:13:35.320Z,106
2022-08-26T05:16:01.944Z,106
2022-08-26T05:18:28.568Z,112
2022-08-26T05:20:53.687Z,118
2022-08-26T05:23:18.824Z,118
2022-08-26T05:25:45.429Z,129
2022-08-26T05:28:12.066Z,135
2022-08-26T05:30:38.676Z,140
2022-08-26T05:33:05.319Z,146
2022-08-26T05:35:31.959Z,146
2022-08-26T05:37:58.563Z,146
2022-08-26T05:40:25.181Z,146
2022-08-26T05:42:51.792Z,146
2022-08-26T05:45:18.413Z,146
2022-08-26T05:47:43.553Z,146
2022-08-26T05:50:10.173Z,157
2022-08-26T05:52:36.805Z,163
2022-08-26T05:55:03.421Z,174
2022-08-26T05:57:30.040Z,180
2022-08-26T05:59:56.658Z,185
2022-08-26T06:02:23.297Z,196
2022-08-26T06:04:49.927Z,202
2022-08-26T06:07:16.541Z,208
2022-08-26T06:09:43.157Z,213
2022-08-26T06:12:09.774Z,219
2022-08-26T06:14:36.409Z,225
2022-08-26T06:17:03.046Z,236
2022-08-26T06:19:28.142Z,236
2022-08-26T06:24:21.392Z,265
2022-08-26T06:26:48.019Z,276
2022-08-26T06:29:14.644Z,287
2022-08-26T06:31:41.283Z,299
2022-08-26T06:34:07.888Z,316
2022-08-26T06:39:01.128Z,377
2022-08-26T06:41:27.754Z,400
2022-08-26T06:43:54.391Z,344
2022-08-26T06:46:21.004Z,338
2022-08-26T06:48:47.640Z,501
2022-08-26T06:51:12.760Z,738
2022-08-26T06:53:39.365Z,886
2022-08-26T06:56:05.995Z,761
2022-08-26T06:58:32.610Z,835
2022-08-26T07:00:59.244Z,1095
2022-08-26T07:03:25.862Z,1100
2022-08-26T07:05:52.498Z,1084
2022-08-26T07:08:19.108Z,609
2022-08-26T07:10:45.726Z,626
2022-08-26T07:13:11.856Z,716
2022-08-26T07:15:38.488Z,598
2022-08-26T07:18:05.106Z,1247
2022-08-26T07:20:31.724Z,547
2022-08-26T07:22:58.342Z,525
2022-08-26T07:25:23.471Z,479
2022-08-26T07:27:50.105Z,451
2022-08-26T07:30:16.725Z,434
2022-08-26T07:32:43.349Z,829
2022-08-26T07:35:09.973Z,1676
2022-08-26T07:40:03.214Z,1682
2022-08-26T07:42:29.837Z,1716
2022-08-26T07:44:56.453Z,1868
2022-08-26T07:47:23.078Z,1863
2022-08-26T07:49:49.708Z,1857
2022-08-26T07:52:16.324Z,1925
2022-08-26T07:54:42.949Z,1964
2022-08-26T07:57:08.099Z,2066
2022-08-26T07:59:34.708Z,2173
2022-08-26T08:02:01.331Z,2218
2022-08-26T08:06:54.564Z,2201
2022-08-26T08:09:21.209Z,2320
2022-08-26T08:11:47.825Z,2399
2022-08-26T08:14:14.441Z,2297
2022-08-26T08:16:41.065Z,2286
2022-08-26T08:21:34.316Z,2241
2022-08-26T08:23:59.437Z,2246
2022-08-26T08:28:51.198Z,2315
2022-08-26T08:31:17.816Z,2354
2022-08-26T08:33:44.451Z,2461
2022-08-26T08:36:11.060Z,2371
2022-08-26T08:38:37.701Z,2512
2022-08-26T08:41:04.321Z,2636
2022-08-26T08:43:30.931Z,2693
2022-08-26T08:45:57.595Z,2495
2022-08-26T08:50:50.792Z,2930
2022-08-26T08:53:17.419Z,2540
2022-08-26T08:55:44.047Z,2648
2022-08-26T08:58:09.177Z,2913
2022-08-26T09:00:35.794Z,2681
2022-08-26T09:03:02.423Z,2941
2022-08-26T09:05:29.043Z,2919
2022-08-26T09:07:55.679Z,3065
2022-08-26T09:10:22.298Z,2874
2022-08-26T09:12:48.918Z,2874
2022-08-26T09:15:15.532Z,2405
2022-08-26T09:17:42.175Z,3059
2022-08-26T09:20:08.788Z,3105
2022-08-26T09:25:00.546Z,3291
2022-08-26T09:29:52.307Z,3065
2022-08-26T09:34:44.042Z,3302
2022-08-26T09:37:09.171Z,3268
2022-08-26T09:39:35.811Z,3297
2022-08-26T09:42:02.424Z,411
2022-08-26T09:44:29.037Z,592
2022-08-26T09:49:20.794Z,2399
2022-08-26T09:51:47.436Z,3133
2022-08-26T09:54:14.044Z,2997
2022-08-26T09:56:40.683Z,271
2022-08-26T09:59:07.295Z,219
2022-08-26T10:04:00.542Z,316
2022-08-26T10:06:27.162Z,327
2022-08-26T10:08:53.790Z,484
2022-08-26T10:11:19.959Z,456
2022-08-26T10:13:46.585Z,383
2022-08-26T10:16:13.217Z,213
2022-08-26T10:18:38.338Z,219
2022-08-26T10:21:04.957Z,225
2022-08-26T10:23:31.582Z,265
2022-08-26T10:25:58.218Z,293
2022-08-26T10:28:24.843Z,338
2022-08-26T10:30:51.466Z,338
2022-08-26T10:33:18.081Z,406
2022-08-26T10:35:44.702Z,377
2022-08-26T10:38:11.335Z,304
2022-08-26T10:40:36.465Z,271
2022-08-26T10:43:02.348Z,236
2022-08-26T10:45:27.478Z,265
2022-08-26T10:47:54.114Z,265
2022-08-26T10:50:20.719Z,316
2022-08-26T10:52:47.353Z,304
2022-08-26T10:55:13.991Z,247
2022-08-26T10:57:40.591Z,191
2022-08-26T11:00:07.225Z,180
2022-08-26T11:02:33.834Z,180
2022-08-26T11:05:00.465Z,180
2022-08-26T11:07:27.087Z,202
2022-08-26T11:09:52.215Z,219
2022-08-26T11:12:17.349Z,191
2022-08-26T11:14:43.973Z,168
2022-08-26T11:17:10.603Z,163
2022-08-26T11:19:37.213Z,163
2022-08-26T11:22:03.848Z,151
2022-08-26T11:24:30.479Z,151
2022-08-26T11:26:57.091Z,140
2022-08-26T11:29:23.721Z,135
2022-08-26T11:31:49.557Z,129
2022-08-26T11:36:42.810Z,123
2022-08-26T11:39:09.439Z,123
2022-08-26T11:41:36.070Z,123
2022-08-26T11:44:01.190Z,118
2022-08-26T11:46:27.795Z,118
2022-08-26T11:48:54.427Z,118
2022-08-26T11:51:21.057Z,118
2022-08-26T11:53:47.680Z,118
2022-08-26T11:56:14.295Z,123
2022-08-26T11:58:40.912Z,123
2022-08-26T12:01:07.551Z,123
2022-08-26T12:03:34.177Z,118
2022-08-26T12:06:00.778Z,123
2022-08-26T12:08:27.404Z,129
2022-08-26T12:10:54.047Z,140
2022-08-26T12:13:20.667Z,140
2022-08-26T12:15:45.787Z,146
2022-08-26T12:18:12.409Z,151
2022-08-26T12:20:39.029Z,157
2022-08-26T12:23:04.764Z,163
2022-08-26T12:25:31.395Z,174
2022-08-26T12:27:58.004Z,185
2022-08-26T12:30:24.638Z,196
2022-08-26T12:32:51.249Z,196
2022-08-26T12:35:17.884Z,196
2022-08-26T12:40:11.113Z,174
2022-08-26T12:45:04.359Z,140
2022-08-26T12:47:29.488Z,146
2022-08-26T12:49:56.116Z,151
2022-08-26T12:52:22.740Z,151
2022-08-26T12:54:49.369Z,151
2022-08-26T12:59:42.607Z,151
2022-08-26T13:02:07.747Z,151
2022-08-26T13:04:34.362Z,151
2022-08-26T13:09:26.131Z,157
2022-08-26T13:14:19.360Z,168
2022-08-26T13:16:45.653Z,174
2022-08-26T13:19:12.267Z,185
2022-08-26T13:24:05.498Z,208
2022-08-26T13:26:32.132Z,219
2022-08-26T13:28:58.756Z,219
2022-08-26T13:31:25.379Z,225
2022-08-26T13:33:52.003Z,230
2022-08-26T13:36:17.142Z,236
2022-08-26T13:38:42.263Z,247
2022-08-26T13:41:08.889Z,253
2022-08-26T13:43:35.520Z,259
2022-08-26T13:46:02.143Z,259
2022-08-26T13:48:28.762Z,259
2022-08-26T13:50:55.385Z,259
2022-08-26T13:53:21.998Z,265
2022-08-26T13:55:48.633Z,259
2022-08-26T13:58:13.764Z,259
2022-08-26T14:00:40.385Z,265
2022-08-26T14:03:05.522Z,253
2022-08-26T14:05:30.653Z,247
2022-08-26T14:07:57.265Z,247
2022-08-26T14:10:23.902Z,241
2022-08-26T14:12:50.541Z,230
2022-08-26T14:15:17.142Z,225
2022-08-26T14:17:43.050Z,213
2022-08-26T14:20:09.657Z,202
2022-08-26T14:22:36.287Z,196
2022-08-26T14:25:02.912Z,185
2022-08-26T14:27:29.540Z,180
2022-08-26T14:29:54.672Z,174
2022-08-26T14:32:19.799Z,163
2022-08-26T14:34:46.408Z,157
2022-08-26T14:37:13.035Z,146
2022-08-26T14:39:39.665Z,129
2022-08-26T14:42:06.268Z,112
2022-08-26T14:44:32.896Z,106
2022-08-26T14:46:59.514Z,95
2022-08-26T14:49:26.144Z,90
2022-08-26T14:51:52.766Z,90
2022-08-26T14:56:45.169Z,84
2022-08-26T14:59:11.786Z,84
2022-08-26T15:01:38.394Z,78
2022-08-26T15:04:03.545Z,78
2022-08-26T15:06:30.149Z,78
2022-08-26T15:11:23.408Z,73
2022-08-26T15:13:48.537Z,73
2022-08-26T15:16:15.161Z,67
2022-08-26T15:18:40.288Z,67
2022-08-26T15:21:06.921Z,61
2022-08-26T15:26:00.162Z,56
2022-08-26T15:28:26.779Z,56
2022-08-26T15:30:53.407Z,56
2022-08-26T15:33:19.176Z,50
2022-08-26T15:35:45.791Z,50
2022-08-26T15:38:12.418Z,50
2022-08-26T15:40:39.058Z,50
2022-08-26T15:43:05.666Z,45
2022-08-26T15:45:32.298Z,45
2022-08-26T15:47:58.926Z,45
2022-08-26T15:50:24.047Z,45
2022-08-26T15:52:50.668Z,45
2022-08-26T15:55:17.295Z,45
2022-08-26T15:57:43.916Z,45
2022-08-26T16:00:10.543Z,39
2022-08-26T16:02:37.166Z,39
2022-08-26T16:07:30.414Z,39
2022-08-26T16:09:57.040Z,39
2022-08-26T16:12:22.665Z,39
2022-08-26T16:14:49.296Z,39
2022-08-26T16:17:14.428Z,39
2022-08-26T16:19:39.547Z,39
2022-08-26T16:22:06.178Z,39
2022-08-26T16:24:32.793Z,33
2022-08-26T16:26:59.441Z,33
2022-08-26T16:29:26.055Z,33
2022-08-26T16:31:52.717Z,33
2022-08-26T16:34:19.336Z,33
2022-08-26T16:36:45.951Z,33
2022-08-26T16:39:12.571Z,33
2022-08-26T16:44:05.839Z,28
2022-08-26T16:48:59.069Z,28
2022-08-26T16:51:25.696Z,28
2022-08-26T16:53:50.818Z,28
2022-08-26T16:56:16.727Z,22
2022-08-26T16:58:41.860Z,22
2022-08-26T17:01:08.484Z,16
2022-08-26T17:03:35.109Z,22
2022-08-26T17:06:01.730Z,22
2022-08-26T17:08:28.372Z,16
2022-08-26T17:13:21.598Z,16
2022-08-26T17:15:48.217Z,11
2022-08-26T17:18:14.831Z,11
2022-08-26T17:20:40.688Z,5
2022-08-26T17:23:07.301Z,5
2022-08-26T17:25:33.932Z,5
2022-08-26T17:28:00.554Z,0
2022-08-26T17:30:25.684Z,0
2022-08-26T17:32:52.302Z,0
2022-08-26T17:35:18.926Z,0
2022-08-26T17:37:45.541Z,0
2022-08-26T17:40:12.176Z,0
2022-08-26T17:42:38.791Z,0
2022-08-26T17:45:05.424Z,0
2022-08-26T17:47:30.567Z,0
2022-08-26T17:49:55.685Z,0
2022-08-26T17:52:22.302Z,0
2022-08-26T17:54:48.919Z,0
2022-08-26T17:57:15.551Z,0
2022-08-26T17:59:42.192Z,0
2022-08-26T18:02:08.799Z,0
2022-08-26T18:04:35.421Z,0
2022-08-26T18:07:02.033Z,0
2022-08-26T18:09:28.656Z,0
2022-08-26T18:11:55.300Z,0
2022-08-26T18:14:21.918Z,0
2022-08-26T18:16:48.537Z,0
2022-08-26T18:19:15.154Z,0
2022-08-26T18:21:40.322Z,0
2022-08-26T18:24:06.916Z,0
2022-08-26T18:26:33.521Z,0
2022-08-26T18:29:00.156Z,0
2022-08-26T18:31:26.774Z,0
2022-08-26T18:36:20.010Z,0
2022-08-26T18:38:46.647Z,0
2022-08-26T18:41:13.271Z,0
2022-08-26T18:46:06.514Z,0
2022-08-26T18:48:33.129Z,0
2022-08-26T18:50:59.753Z,0
2022-08-26T18:53:24.885Z,0
2022-08-26T18:55:50.588Z,0
2022-08-26T19:00:43.808Z,0
2022-08-26T19:08:02.191Z,0
2022-08-26T19:10:28.818Z,0
2022-08-26T19:15:20.581Z,0
2022-08-26T19:20:12.326Z,0
2022-08-26T19:22:37.453Z,0
2022-08-26T19:25:04.072Z,0
2022-08-26T19:29:57.317Z,0
2022-08-26T19:34:50.567Z,0
2022-08-26T19:37:15.691Z,0
2022-08-26T19:39:42.327Z,0
2022-08-26T19:44:35.576Z,0
2022-08-26T19:49:28.810Z,0
2022-08-26T19:51:55.427Z,0
2022-08-26T19:54:22.053Z,0
2022-08-26T19:59:15.320Z,0
2022-08-26T20:04:07.064Z,0
2022-08-26T20:06:32.192Z,0
2022-08-26T20:08:58.820Z,0
2022-08-26T20:13:52.059Z,0
2022-08-26T20:21:10.437Z,0
2022-08-26T20:23:37.052Z,0
2022-08-26T20:28:30.316Z,0
2022-08-26T20:33:23.554Z,0
2022-08-26T20:35:50.186Z,0
2022-08-26T20:48:03.285Z,0
2022-08-26T20:50:28.414Z,0
2022-08-26T20:52:55.047Z,0
2022-08-26T20:57:48.288Z,0
2022-08-26T21:02:41.542Z,0
2022-08-26T21:05:08.149Z,0
2022-08-26T21:07:34.764Z,0
2022-08-26T21:12:28.009Z,0
2022-08-26T21:14:54.645Z,0
2022-08-26T21:17:21.272Z,0
2022-08-26T21:19:47.884Z,0
2022-08-26T21:22:14.495Z,0
2022-08-26T21:27:07.770Z,0
2022-08-26T21:31:59.512Z,0
2022-08-26T21:34:26.128Z,0
2022-08-26T21:36:52.747Z,0
2022-08-26T21:41:45.994Z,0
2022-08-26T21:46:39.240Z,0
2022-08-26T21:49:05.857Z,0
2022-08-26T21:51:32.490Z,0
2022-08-26T21:56:25.727Z,0
2022-08-26T22:01:18.983Z,0
2022-08-26T22:03:44.099Z,0
2022-08-26T22:06:10.718Z,0
2022-08-26T22:11:02.478Z,0
2022-08-26T22:15:54.255Z,0
2022-08-26T22:18:19.382Z,0
2022-08-26T22:20:45.998Z,0
2022-08-26T22:25:39.234Z,0
2022-08-26T22:30:32.470Z,0
2022-08-26T22:32:59.102Z,0
2022-08-26T22:35:25.696Z,0
2022-08-26T22:40:18.947Z,0
2022-08-26T22:45:12.197Z,0
2022-08-26T22:47:38.813Z,0
2022-08-26T22:50:05.439Z,0
2022-08-26T22:54:58.681Z,0
2022-08-26T22:59:51.926Z,0
2022-08-26T23:02:17.062Z,0
2022-08-26T23:14:30.166Z,0
2022-08-26T23:16:56.789Z,0
2022-08-26T23:19:23.412Z,0
2022-08-26T23:24:16.663Z,0
2022-08-26T23:29:09.910Z,0
2022-08-26T23:31:36.527Z,0
2022-08-26T23:38:54.899Z,0
2022-08-26T23:41:21.530Z,0
2022-08-26T23:43:48.146Z,0
2022-08-26T23:46:14.780Z,0
2022-08-26T23:48:40.484Z,0
2022-08-26T23:56:00.356Z,0
2022-08-26T23:58:26.970Z,0
